Terminal Aerodrome Forecast
Issued by NWS

Home | Current Version | Previous Version | Text Only | Print | Product List | Glossary On
Versions: 1 2 3 4 5 6 7 8 9 10 11 12 13 14 15 16 17 18 19 20 21 22 23 24 25 26 27 28
000
FTUS42 KMFL 042107 AAB
TAFTMB
TAF AMD
KTMB 042107Z 0421/0518 25011KT P6SM SHRA VCTS SCT025CB BKN050
      TEMPO 0421/0424 VRB15G25KT 4SM TSRA SCT010 BKN025CB
     FM050000 29005KT P6SM VCTS SCT040CB SCT120 BKN250
     FM050800 31011KT P6SM FEW250
     FM051400 33015KT P6SM FEW040=

USA.gov is the U.S. government's official web portal to all federal, state and local government web resources and services.